createdAt,value
2022-10-24T00:00:59.911Z,14.50
2022-10-24T00:02:02.733Z,15.18
2022-10-24T00:03:05.165Z,12.88
2022-10-24T00:04:08.106Z,15.68
2022-10-24T00:05:13.803Z,13.40
2022-10-24T00:06:17.204Z,18.15
2022-10-24T00:07:19.602Z,16.52
2022-10-24T00:08:22.092Z,15.20
2022-10-24T00:09:24.552Z,14.57
2022-10-24T00:10:27.152Z,17.33
2022-10-24T00:11:29.672Z,13.27
2022-10-24T00:12:32.671Z,16.80
2022-10-24T00:13:35.411Z,14.38
2022-10-24T00:14:37.975Z,12.20
2022-10-24T00:15:43.321Z,10.60
2022-10-24T00:16:45.969Z,13.48
2022-10-24T00:17:48.522Z,14.25
2022-10-24T00:18:51.004Z,14.75
2022-10-24T00:19:54.349Z,13.57
2022-10-24T00:20:57.166Z,15.15
2022-10-24T00:21:59.626Z,11.98
2022-10-24T00:23:02.611Z,12.25
2022-10-24T00:24:06.172Z,12.07
2022-10-24T00:25:09.090Z,13.93
2022-10-24T00:26:12.952Z,11.00
2022-10-24T00:27:15.556Z,12.93
2022-10-24T00:28:18.299Z,10.65
2022-10-24T00:29:20.843Z,12.85
2022-10-24T00:30:23.453Z,11.23
2022-10-24T00:31:26.082Z,11.82
2022-10-24T00:32:28.673Z,11.30
2022-10-24T00:33:31.248Z,12.43
2022-10-24T00:34:33.742Z,12.60
2022-10-24T00:35:36.302Z,11.98
2022-10-24T00:36:39.078Z,14.05
2022-10-24T00:37:41.633Z,12.30
2022-10-24T00:38:44.852Z,12.82
2022-10-24T00:39:47.311Z,10.93
2022-10-24T00:40:50.039Z,11.98
2022-10-24T00:41:54.268Z,17.20
2022-10-24T00:42:56.688Z,12.80
2022-10-24T00:44:19.907Z,12.98
2022-10-24T00:45:34.628Z,11.75
2022-10-24T00:46:37.143Z,16.45
2022-10-24T00:47:39.686Z,17.52
2022-10-24T00:48:51.876Z,15.05
2022-10-24T00:50:01.949Z,12.57
2022-10-24T00:51:15.374Z,13.32
2022-10-24T00:52:22.543Z,13.50
2022-10-24T00:53:26.475Z,18.40
2022-10-24T00:54:29.443Z,17.23
2022-10-24T00:55:31.965Z,15.93
2022-10-24T00:56:58.950Z,16.65
2022-10-24T00:58:01.967Z,16.48
2022-10-24T00:59:08.101Z,14.32
2022-10-24T01:00:15.143Z,15.25
2022-10-24T01:01:17.756Z,15.57
2022-10-24T01:02:21.903Z,18.23
2022-10-24T01:03:24.539Z,16.38
2022-10-24T01:04:27.001Z,20.23
2022-10-24T01:05:36.507Z,16.42
2022-10-24T01:06:50.332Z,19.58
2022-10-24T01:08:10.164Z,19.73
2022-10-24T01:09:15.172Z,17.92
2022-10-24T01:10:38.482Z,19.27
2022-10-24T01:11:55.797Z,18.73
2022-10-24T01:13:30.850Z,16.58
2022-10-24T01:14:54.205Z,16.55
2022-10-24T01:16:27.366Z,16.23
2022-10-24T01:17:39.770Z,16.05
2022-10-24T01:19:59.490Z,19.20
2022-10-24T01:21:07.741Z,17.60
2022-10-24T01:22:25.954Z,15.90
2022-10-24T01:24:05.134Z,15.50
2022-10-24T01:25:17.922Z,19.73
2022-10-24T01:26:38.839Z,15.88
2022-10-24T01:28:58.738Z,19.00
2022-10-24T01:30:12.644Z,18.73
2022-10-24T01:31:47.284Z,18.30
2022-10-24T01:33:10.205Z,22.00
2022-10-24T01:34:33.341Z,17.40
2022-10-24T01:35:52.511Z,17.90
2022-10-24T01:37:08.789Z,17.75
2022-10-24T01:38:19.388Z,18.83
2022-10-24T01:39:24.202Z,23.25
2022-10-24T01:40:34.065Z,20.90
2022-10-24T01:41:36.764Z,22.00
2022-10-24T01:42:40.349Z,17.83
2022-10-24T01:45:02.404Z,16.75
2022-10-24T01:46:09.086Z,17.60
2022-10-24T01:47:16.429Z,23.63
2022-10-24T01:48:21.341Z,20.45
2022-10-24T01:49:28.188Z,18.52
2022-10-24T01:50:34.256Z,20.23
2022-10-24T01:51:37.380Z,23.20
2022-10-24T01:52:41.740Z,23.05
2022-10-24T01:53:45.651Z,21.75
2022-10-24T01:54:49.087Z,22.40
2022-10-24T01:55:51.635Z,21.55
2022-10-24T01:56:54.154Z,20.58
2022-10-24T01:57:56.627Z,20.20
2022-10-24T01:59:28.483Z,20.27
2022-10-24T02:00:31.170Z,17.73
2022-10-24T02:01:34.241Z,22.70
2022-10-24T02:02:48.944Z,19.27
2022-10-24T02:03:55.988Z,19.25
2022-10-24T02:05:03.522Z,18.27
2022-10-24T02:06:16.671Z,20.40
2022-10-24T02:07:20.456Z,19.80
2022-10-24T02:08:28.368Z,19.13
2022-10-24T02:09:31.183Z,19.63
2022-10-24T02:10:45.307Z,19.20
2022-10-24T02:11:48.455Z,21.08
2022-10-24T02:12:54.453Z,22.83
2022-10-24T02:14:24.300Z,18.88
2022-10-24T02:15:33.657Z,19.20
2022-10-24T02:16:36.176Z,24.67
2022-10-24T02:17:38.715Z,19.00
2022-10-24T02:18:41.851Z,23.08
2022-10-24T02:19:44.945Z,20.73
2022-10-24T02:21:20.106Z,21.00
2022-10-24T02:22:29.474Z,21.80
2022-10-24T02:23:43.492Z,25.30
2022-10-24T02:24:51.015Z,25.35
2022-10-24T02:25:57.276Z,21.92
2022-10-24T02:27:12.818Z,28.33
2022-10-24T02:28:22.001Z,25.50
2022-10-24T02:29:36.640Z,22.90
2022-10-24T02:30:43.713Z,27.30
2022-10-24T02:31:53.925Z,23.00
2022-10-24T02:32:58.581Z,24.55
2022-10-24T02:34:02.031Z,22.30
2022-10-24T02:35:06.566Z,23.40
2022-10-24T02:36:10.817Z,21.90
2022-10-24T02:37:13.626Z,23.73
2022-10-24T02:38:21.305Z,22.10
2022-10-24T02:39:24.059Z,25.92
2022-10-24T02:40:26.812Z,34.67
2022-10-24T02:41:32.169Z,25.48
2022-10-24T02:42:35.387Z,26.50
2022-10-24T02:43:39.287Z,31.45
2022-10-24T02:44:42.868Z,26.88
2022-10-24T02:45:46.063Z,28.45
2022-10-24T02:46:51.190Z,25.58
2022-10-24T02:47:57.218Z,24.52
2022-10-24T02:49:01.742Z,22.33
2022-10-24T02:50:04.465Z,25.85
2022-10-24T02:51:07.440Z,26.60
2022-10-24T02:52:10.031Z,28.15
2022-10-24T02:53:16.962Z,26.92
2022-10-24T02:54:19.631Z,20.95
2022-10-24T02:55:22.476Z,25.58
2022-10-24T02:56:25.126Z,26.40
2022-10-24T02:57:27.720Z,23.85
2022-10-24T02:58:30.187Z,24.48
2022-10-24T02:59:32.642Z,21.10
2022-10-24T03:00:35.129Z,27.73
2022-10-24T03:01:37.765Z,23.23
2022-10-24T03:02:40.289Z,27.23
2022-10-24T03:03:42.801Z,31.48
2022-10-24T03:04:45.498Z,23.35
2022-10-24T03:05:48.458Z,25.52
2022-10-24T03:06:51.064Z,30.70
2022-10-24T03:07:53.481Z,25.10
2022-10-24T03:08:56.068Z,27.08
2022-10-24T03:09:58.612Z,30.70
2022-10-24T03:11:01.204Z,25.27
2022-10-24T03:12:04.671Z,31.45
2022-10-24T03:13:07.111Z,25.23
2022-10-24T03:14:09.854Z,28.52
2022-10-24T03:15:12.711Z,25.20
2022-10-24T03:16:15.213Z,27.33
2022-10-24T03:17:17.648Z,24.23
2022-10-24T03:18:20.140Z,27.80
2022-10-24T03:19:22.498Z,26.77
2022-10-24T03:20:25.086Z,27.80
2022-10-24T03:21:27.756Z,24.23
2022-10-24T03:22:30.727Z,24.17
2022-10-24T03:23:33.550Z,26.55
2022-10-24T03:24:43.797Z,28.98
2022-10-24T03:26:52.174Z,28.38
2022-10-24T03:27:54.684Z,27.77
2022-10-24T03:28:57.203Z,22.95
2022-10-24T03:30:00.115Z,26.63
2022-10-24T03:31:02.967Z,25.42
2022-10-24T03:32:06.471Z,26.30
2022-10-24T03:33:09.025Z,28.10
2022-10-24T03:34:11.592Z,28.00
2022-10-24T03:35:14.448Z,23.67
2022-10-24T03:36:17.332Z,24.50
2022-10-24T03:37:20.224Z,23.90
2022-10-24T03:38:23.481Z,31.27
2022-10-24T03:39:25.974Z,29.98
2022-10-24T03:40:28.476Z,23.17
2022-10-24T03:41:31.001Z,27.40
2022-10-24T03:42:33.429Z,24.90
2022-10-24T03:43:36.093Z,25.05
2022-10-24T03:44:38.587Z,22.85
2022-10-24T03:45:41.116Z,25.60
2022-10-24T03:46:43.572Z,23.27
2022-10-24T03:47:46.085Z,22.38
2022-10-24T03:48:48.764Z,21.92
2022-10-24T03:49:51.177Z,24.92
2022-10-24T03:50:53.627Z,24.13
2022-10-24T03:51:56.196Z,23.63
2022-10-24T03:52:59.013Z,20.50
2022-10-24T03:54:01.645Z,22.30
2022-10-24T03:55:04.587Z,21.33
2022-10-24T03:56:07.402Z,25.70
2022-10-24T03:57:10.126Z,22.35
2022-10-24T03:58:12.561Z,27.73
2022-10-24T03:59:15.781Z,20.20
2022-10-24T04:00:19.617Z,17.70
2022-10-24T04:01:23.907Z,24.60
2022-10-24T04:02:26.755Z,23.98
2022-10-24T04:03:29.361Z,20.98
2022-10-24T04:04:31.916Z,22.65
2022-10-24T04:05:34.871Z,19.95
2022-10-24T04:06:37.614Z,23.48
2022-10-24T04:07:40.443Z,19.02
2022-10-24T04:08:42.911Z,18.02
2022-10-24T04:09:46.029Z,23.65
2022-10-24T04:10:51.031Z,20.92
2022-10-24T04:11:53.687Z,19.63
2022-10-24T04:12:56.157Z,22.67
2022-10-24T04:15:08.807Z,27.17
2022-10-24T04:16:11.336Z,20.67
2022-10-24T04:17:13.722Z,22.23
2022-10-24T04:18:16.401Z,20.23
2022-10-24T04:19:19.113Z,22.02
2022-10-24T04:20:23.162Z,20.65
2022-10-24T04:21:25.706Z,20.50
2022-10-24T04:22:28.210Z,22.13
2022-10-24T04:23:34.501Z,20.58
2022-10-24T04:24:39.463Z,24.83
2022-10-24T04:25:42.329Z,22.15
2022-10-24T04:26:45.002Z,19.48
2022-10-24T04:27:47.677Z,21.00
2022-10-24T04:28:50.926Z,17.70
2022-10-24T04:29:53.379Z,19.38
2022-10-24T04:30:59.028Z,27.08
2022-10-24T04:32:01.738Z,21.08
2022-10-24T04:33:04.258Z,17.70
2022-10-24T04:34:06.777Z,20.20
2022-10-24T04:35:09.644Z,22.08
2022-10-24T04:36:12.151Z,19.65
2022-10-24T04:37:14.557Z,19.65
2022-10-24T04:38:17.700Z,24.55
2022-10-24T04:39:20.425Z,20.75
2022-10-24T04:40:23.064Z,20.55
2022-10-24T04:41:25.967Z,20.55
2022-10-24T04:42:28.575Z,19.20
2022-10-24T04:43:31.428Z,18.90
2022-10-24T04:44:33.878Z,18.88
2022-10-24T04:45:36.377Z,21.33
2022-10-24T04:46:39.058Z,19.95
2022-10-24T04:47:41.712Z,25.25
2022-10-24T04:48:44.388Z,20.98
2022-10-24T04:49:47.037Z,20.85
2022-10-24T04:50:49.933Z,18.88
2022-10-24T04:51:52.383Z,21.35
2022-10-24T04:52:54.910Z,18.88
2022-10-24T04:53:57.267Z,20.23
2022-10-24T04:55:00.180Z,17.27
2022-10-24T04:56:02.803Z,21.80
2022-10-24T04:57:05.374Z,17.30
2022-10-24T04:58:08.145Z,18.60
2022-10-24T04:59:10.593Z,21.05
2022-10-24T05:00:13.479Z,20.15
2022-10-24T05:01:16.177Z,20.80
2022-10-24T05:02:18.898Z,20.92
2022-10-24T05:03:22.245Z,22.05
2022-10-24T05:04:24.669Z,20.95
2022-10-24T05:05:27.292Z,20.88
2022-10-24T05:06:29.880Z,19.92
2022-10-24T05:07:32.496Z,27.23
2022-10-24T05:08:35.004Z,23.20
2022-10-24T05:09:37.485Z,23.30
2022-10-24T05:10:40.447Z,21.83
2022-10-24T05:11:43.073Z,23.02
2022-10-24T05:12:46.226Z,27.40
2022-10-24T05:13:48.878Z,18.52
2022-10-24T05:14:51.609Z,20.58
2022-10-24T05:15:54.475Z,19.67
2022-10-24T05:16:57.085Z,21.80
2022-10-24T05:17:59.933Z,20.25
2022-10-24T05:19:02.480Z,21.75
2022-10-24T05:20:05.553Z,23.95
2022-10-24T05:21:08.116Z,24.15
2022-10-24T05:22:11.083Z,21.58
2022-10-24T05:23:13.744Z,18.75
2022-10-24T05:24:16.252Z,19.38
2022-10-24T05:25:19.118Z,22.60
2022-10-24T05:26:21.670Z,24.02
2022-10-24T05:27:26.966Z,21.98
2022-10-24T05:28:29.487Z,18.30
2022-10-24T05:29:33.572Z,21.02
2022-10-24T05:30:36.195Z,22.08
2022-10-24T05:31:38.710Z,26.73
2022-10-24T05:32:41.427Z,18.35
2022-10-24T05:33:43.940Z,17.50
2022-10-24T05:34:46.503Z,19.17
2022-10-24T05:35:49.701Z,24.45
2022-10-24T05:36:52.186Z,21.30
2022-10-24T05:37:54.758Z,16.92
2022-10-24T05:38:57.302Z,17.50
2022-10-24T05:39:59.863Z,22.33
2022-10-24T05:41:03.040Z,19.42
2022-10-24T05:42:05.756Z,18.83
2022-10-24T05:43:09.005Z,25.35
2022-10-24T05:44:15.038Z,18.02
2022-10-24T05:45:17.868Z,24.70
2022-10-24T05:46:20.329Z,24.73
2022-10-24T05:47:24.637Z,21.63
2022-10-24T05:48:29.337Z,24.83
2022-10-24T05:49:32.065Z,24.02
2022-10-24T05:50:35.069Z,21.58
2022-10-24T05:51:37.535Z,22.65
2022-10-24T05:52:46.151Z,35.30
2022-10-24T05:53:49.673Z,20.70
2022-10-24T05:55:06.407Z,26.00
2022-10-24T05:56:10.397Z,25.98
2022-10-24T05:57:13.047Z,23.73
2022-10-24T05:58:21.076Z,22.50
2022-10-24T05:59:23.609Z,18.27
2022-10-24T06:00:26.421Z,21.55
2022-10-24T06:01:28.847Z,20.48
2022-10-24T06:02:31.615Z,24.95
2022-10-24T06:03:34.324Z,25.35
2022-10-24T06:04:36.849Z,19.48
2022-10-24T06:05:39.304Z,21.25
2022-10-24T06:06:43.633Z,22.08
2022-10-24T06:07:46.701Z,35.97
2022-10-24T06:08:49.927Z,25.85
2022-10-24T06:09:52.524Z,19.75
2022-10-24T06:10:55.220Z,20.65
2022-10-24T06:11:57.971Z,22.20
2022-10-24T06:13:00.406Z,28.13
2022-10-24T06:14:03.330Z,20.10
2022-10-24T06:15:07.394Z,21.67
2022-10-24T06:16:11.010Z,23.02
2022-10-24T06:17:13.568Z,20.38
2022-10-24T06:18:16.087Z,26.35
2022-10-24T06:19:19.103Z,19.77
2022-10-24T06:20:21.620Z,25.75
2022-10-24T06:21:24.984Z,26.40
2022-10-24T06:22:29.834Z,20.25
2022-10-24T06:23:32.890Z,19.65
2022-10-24T06:24:37.008Z,21.05
2022-10-24T06:25:42.639Z,24.05
2022-10-24T06:26:45.258Z,22.85
2022-10-24T06:27:48.567Z,19.85
2022-10-24T06:28:50.987Z,23.88
2022-10-24T06:29:53.349Z,18.33
2022-10-24T06:30:55.956Z,20.42
2022-10-24T06:31:58.653Z,24.77
2022-10-24T06:33:01.928Z,24.13
2022-10-24T06:34:04.503Z,22.63
2022-10-24T06:35:07.665Z,21.77
2022-10-24T06:36:12.192Z,25.08
2022-10-24T06:37:14.652Z,22.02
2022-10-24T06:38:17.394Z,22.55
2022-10-24T06:39:20.286Z,25.17
2022-10-24T06:40:25.407Z,22.15
2022-10-24T06:41:28.043Z,25.30
2022-10-24T06:42:30.713Z,27.23
2022-10-24T06:43:33.598Z,20.13
2022-10-24T06:44:36.717Z,22.30
2022-10-24T06:45:39.251Z,26.45
2022-10-24T06:46:41.854Z,25.90
2022-10-24T06:47:44.734Z,28.83
2022-10-24T06:48:47.917Z,25.65
2022-10-24T06:49:50.354Z,20.13
2022-10-24T06:50:52.797Z,28.70
2022-10-24T06:51:55.790Z,24.58
2022-10-24T06:52:58.302Z,20.15
2022-10-24T06:54:00.779Z,21.42
2022-10-24T06:55:03.955Z,18.90
2022-10-24T06:56:07.297Z,22.33
2022-10-24T06:57:09.811Z,19.65
2022-10-24T06:58:12.210Z,22.23
2022-10-24T06:59:16.818Z,22.50
2022-10-24T07:00:19.585Z,21.85
2022-10-24T07:01:24.077Z,21.38
2022-10-24T07:02:27.123Z,21.45
2022-10-24T07:03:29.726Z,19.60
2022-10-24T07:04:32.435Z,19.98
2022-10-24T07:05:34.907Z,18.35
2022-10-24T07:06:37.533Z,22.52
2022-10-24T07:07:41.385Z,23.63
2022-10-24T07:08:44.432Z,22.90
2022-10-24T07:09:52.838Z,22.33
2022-10-24T07:10:55.425Z,22.13
2022-10-24T07:11:58.096Z,20.85
2022-10-24T07:13:00.571Z,22.77
2022-10-24T07:14:04.575Z,20.98
2022-10-24T07:15:11.324Z,20.83
2022-10-24T07:16:14.510Z,21.27
2022-10-24T07:17:18.000Z,22.25
2022-10-24T07:18:20.908Z,19.77
2022-10-24T07:19:23.374Z,23.70
2022-10-24T07:20:26.424Z,25.13
2022-10-24T07:21:30.799Z,18.80
2022-10-24T07:22:33.599Z,24.40
2022-10-24T07:23:36.521Z,22.83
2022-10-24T07:24:39.044Z,18.45
2022-10-24T07:25:41.930Z,16.55
2022-10-24T07:26:44.413Z,19.80
2022-10-24T07:27:47.014Z,17.33
2022-10-24T07:28:53.543Z,24.35
2022-10-24T07:29:56.925Z,18.23
2022-10-24T07:31:00.583Z,21.05
2022-10-24T07:32:03.273Z,18.42
2022-10-24T07:33:06.101Z,23.30
2022-10-24T07:34:09.622Z,19.00
2022-10-24T07:35:13.270Z,26.23
2022-10-24T07:36:20.228Z,21.88
2022-10-24T07:37:22.669Z,17.17
2022-10-24T07:38:25.291Z,19.98
2022-10-24T07:39:27.855Z,22.77
2022-10-24T07:40:30.517Z,21.73
2022-10-24T07:41:33.611Z,23.52
2022-10-24T07:42:36.158Z,18.35
2022-10-24T07:43:38.593Z,24.83
2022-10-24T07:44:41.066Z,21.20
2022-10-24T07:45:47.743Z,23.90
2022-10-24T07:47:58.241Z,21.00
2022-10-24T07:49:00.701Z,25.08
2022-10-24T07:50:04.557Z,20.10
2022-10-24T07:51:08.833Z,17.33
2022-10-24T07:52:11.340Z,20.35
2022-10-24T07:53:14.189Z,15.02
2022-10-24T07:54:16.775Z,20.63
2022-10-24T07:55:19.347Z,19.58
2022-10-24T07:56:22.254Z,16.90
2022-10-24T07:57:25.100Z,17.35
2022-10-24T07:58:28.355Z,17.70
2022-10-24T07:59:41.643Z,16.63
2022-10-24T08:00:45.582Z,21.05
2022-10-24T08:01:48.346Z,21.13
2022-10-24T08:02:51.134Z,20.10
2022-10-24T08:03:54.228Z,21.13
2022-10-24T08:04:56.717Z,19.38
2022-10-24T08:05:59.379Z,17.80
2022-10-24T08:07:01.857Z,18.88
2022-10-24T08:08:27.435Z,22.88
2022-10-24T08:09:27.278Z,18.88
2022-10-24T08:10:29.972Z,22.48
2022-10-24T08:11:32.829Z,16.55
2022-10-24T08:12:35.451Z,17.50
2022-10-24T08:13:38.162Z,19.23
2022-10-24T08:14:41.532Z,18.85
2022-10-24T08:15:44.103Z,15.57
2022-10-24T08:16:46.678Z,18.33
2022-10-24T08:17:49.228Z,17.30
2022-10-24T08:18:53.417Z,17.88
2022-10-24T08:19:56.032Z,17.75
2022-10-24T08:21:02.844Z,18.02
2022-10-24T08:22:05.368Z,15.57
2022-10-24T08:23:07.904Z,20.70
2022-10-24T08:24:10.443Z,18.65
2022-10-24T08:25:14.455Z,18.15
2022-10-24T08:26:18.978Z,19.77
2022-10-24T08:27:21.336Z,17.23
2022-10-24T08:28:24.073Z,19.85
2022-10-24T08:29:26.663Z,18.92
2022-10-24T08:30:29.235Z,16.70
2022-10-24T08:31:31.667Z,18.88
2022-10-24T08:32:35.703Z,16.45
2022-10-24T08:33:38.661Z,17.48
2022-10-24T08:34:41.244Z,16.42
2022-10-24T08:35:44.120Z,18.80
2022-10-24T08:36:47.552Z,18.90
2022-10-24T08:37:50.095Z,17.08
2022-10-24T08:38:52.992Z,14.77
2022-10-24T08:39:55.848Z,20.13
2022-10-24T08:40:58.833Z,16.75
2022-10-24T08:42:04.353Z,16.73
2022-10-24T08:43:06.802Z,19.27
2022-10-24T08:44:36.167Z,15.98
2022-10-24T08:46:03.815Z,17.88
2022-10-24T08:47:20.764Z,22.75
2022-10-24T08:48:28.559Z,13.32
2022-10-24T08:49:51.140Z,21.95
2022-10-24T08:50:59.869Z,16.98
2022-10-24T08:52:13.543Z,17.55
2022-10-24T08:53:25.399Z,15.77
2022-10-24T08:54:36.918Z,16.25
2022-10-24T08:55:50.285Z,18.13
2022-10-24T08:56:56.023Z,19.45
2022-10-24T08:58:00.290Z,16.15
2022-10-24T08:59:03.659Z,18.33
2022-10-24T09:00:18.271Z,17.08
2022-10-24T09:01:49.634Z,16.98
2022-10-24T09:03:26.624Z,27.83
2022-10-24T09:04:46.913Z,16.85
2022-10-24T09:05:52.350Z,13.95
2022-10-24T09:06:55.516Z,17.25
2022-10-24T09:08:05.612Z,14.48
2022-10-24T09:09:47.060Z,13.55
2022-10-24T09:10:53.647Z,17.45
2022-10-24T09:12:13.576Z,14.35
2022-10-24T09:13:17.054Z,15.48
2022-10-24T09:14:20.649Z,14.10
2022-10-24T09:15:28.201Z,13.95
2022-10-24T09:16:30.810Z,16.73
2022-10-24T09:17:37.140Z,16.00
2022-10-24T09:18:42.087Z,15.63
2022-10-24T09:20:09.750Z,19.02
2022-10-24T09:21:14.093Z,14.15
2022-10-24T09:22:17.608Z,14.43
2022-10-24T09:23:22.440Z,14.20
2022-10-24T09:24:39.376Z,18.98
2022-10-24T09:25:44.558Z,13.27
2022-10-24T09:26:47.575Z,18.10
2022-10-24T09:27:50.851Z,18.42
2022-10-24T09:28:57.094Z,20.05
2022-10-24T09:30:00.252Z,19.23
2022-10-24T09:31:16.894Z,14.38
2022-10-24T09:32:22.009Z,13.38
2022-10-24T09:33:29.015Z,12.98
2022-10-24T09:34:31.549Z,19.25
2022-10-24T09:35:35.476Z,16.13
2022-10-24T09:36:39.577Z,15.07
2022-10-24T09:37:49.370Z,15.25
2022-10-24T09:38:52.138Z,12.68
2022-10-24T09:40:08.880Z,13.10
2022-10-24T09:41:17.565Z,16.40
2022-10-24T09:42:23.833Z,12.93
2022-10-24T09:43:46.865Z,14.63
2022-10-24T09:44:49.450Z,14.23
2022-10-24T09:46:17.986Z,17.10
2022-10-24T09:47:28.520Z,12.80
2022-10-24T09:48:36.376Z,13.48
2022-10-24T09:49:41.376Z,15.45
2022-10-24T09:50:45.611Z,12.70
2022-10-24T09:52:05.299Z,16.48
2022-10-24T09:53:20.641Z,15.73
2022-10-24T09:54:31.065Z,14.60
2022-10-24T09:55:44.482Z,12.13
2022-10-24T09:57:12.911Z,10.93
2022-10-24T09:58:20.485Z,14.38
2022-10-24T09:59:32.712Z,16.40
2022-10-24T10:00:36.911Z,12.13
2022-10-24T10:01:39.678Z,13.75
2022-10-24T10:03:03.955Z,22.55
2022-10-24T10:04:09.996Z,13.25
2022-10-24T10:05:19.219Z,14.25
2022-10-24T10:06:21.892Z,13.27
2022-10-24T10:07:29.841Z,21.42
2022-10-24T10:08:34.713Z,11.77
2022-10-24T10:09:42.265Z,12.43
2022-10-24T10:11:01.441Z,16.35
2022-10-24T10:12:04.078Z,14.00
2022-10-24T10:13:15.798Z,15.57
2022-10-24T10:14:29.756Z,18.02
2022-10-24T10:15:59.218Z,12.35
2022-10-24T10:17:05.183Z,11.35
2022-10-24T10:18:22.539Z,13.88
2022-10-24T10:19:25.517Z,12.30
2022-10-24T10:21:06.838Z,20.30
2022-10-24T10:23:34.126Z,20.38
2022-10-24T10:24:41.023Z,19.33
2022-10-24T10:25:43.745Z,16.27
2022-10-24T10:26:46.256Z,29.17
2022-10-24T10:27:51.838Z,17.40
2022-10-24T10:29:09.044Z,12.32
2022-10-24T10:30:16.958Z,15.40
2022-10-24T10:31:23.543Z,11.85
2022-10-24T10:32:32.429Z,12.30
2022-10-24T10:33:53.209Z,18.63
2022-10-24T10:35:07.431Z,13.60
2022-10-24T10:36:31.923Z,14.27
2022-10-24T10:37:44.172Z,10.93
2022-10-24T10:38:51.138Z,11.70
2022-10-24T10:40:02.629Z,12.65
2022-10-24T10:41:44.466Z,13.48
2022-10-24T10:42:47.248Z,14.30
2022-10-24T10:44:06.213Z,15.60
2022-10-24T10:45:47.137Z,10.35
2022-10-24T10:47:54.869Z,15.88
2022-10-24T10:49:01.392Z,13.65
2022-10-24T10:50:48.816Z,12.75
2022-10-24T10:51:57.831Z,16.80
2022-10-24T10:53:29.563Z,16.83
2022-10-24T10:54:56.567Z,19.60
2022-10-24T10:56:17.570Z,14.73
2022-10-24T10:57:24.686Z,19.25
2022-10-24T10:59:59.163Z,16.45
2022-10-24T11:01:13.903Z,13.48
2022-10-24T11:02:38.747Z,16.13
2022-10-24T11:04:23.917Z,20.15
2022-10-24T11:05:51.376Z,12.15
2022-10-24T11:07:38.702Z,17.27
2022-10-24T11:08:56.391Z,14.57
2022-10-24T11:10:09.794Z,14.90
2022-10-24T11:11:28.261Z,12.63
2022-10-24T11:12:39.487Z,12.63
2022-10-24T11:13:56.507Z,20.00
2022-10-24T11:15:10.493Z,16.85
2022-10-24T11:16:19.724Z,15.80
2022-10-24T11:17:28.263Z,12.35
2022-10-24T11:18:35.449Z,14.25
2022-10-24T11:20:28.924Z,19.77
2022-10-24T11:21:33.464Z,21.05
2022-10-24T11:22:40.966Z,19.17
2022-10-24T11:23:51.189Z,19.63
2022-10-24T11:25:01.824Z,14.57
2022-10-24T11:26:45.120Z,12.95
2022-10-24T11:28:00.707Z,13.25
2022-10-24T11:29:29.123Z,11.77
2022-10-24T11:30:43.527Z,12.10
2022-10-24T11:31:57.925Z,12.57
2022-10-24T11:33:03.336Z,12.13
2022-10-24T11:34:38.657Z,15.27
2022-10-24T11:35:52.987Z,11.35
2022-10-24T11:37:19.614Z,13.00
2022-10-24T11:38:23.672Z,10.00
2022-10-24T11:39:47.729Z,13.35
2022-10-24T11:40:58.616Z,12.18
2022-10-24T11:42:16.367Z,10.30
2022-10-24T11:43:35.633Z,16.98
2022-10-24T11:45:13.390Z,12.80
2022-10-24T11:46:37.054Z,10.32
2022-10-24T11:47:48.614Z,16.30
2022-10-24T11:48:59.288Z,13.63
2022-10-24T11:51:25.281Z,16.23
2022-10-24T11:52:31.408Z,12.27
2022-10-24T11:53:34.418Z,16.95
2022-10-24T11:55:08.803Z,19.45
2022-10-24T11:56:43.009Z,12.30
2022-10-24T11:57:48.706Z,15.55
2022-10-24T11:59:00.783Z,19.30
2022-10-24T12:00:04.843Z,14.88
2022-10-24T12:01:37.252Z,18.48
2022-10-24T12:02:39.774Z,14.05
2022-10-24T12:04:06.755Z,16.92
2022-10-24T12:05:27.802Z,10.98
2022-10-24T12:06:38.840Z,18.65
2022-10-24T12:08:06.009Z,29.70
2022-10-24T12:09:29.538Z,16.10
2022-10-24T12:10:56.482Z,11.63
2022-10-24T12:12:31.467Z,20.15
2022-10-24T12:13:57.497Z,11.10
2022-10-24T12:15:26.982Z,8.40
2022-10-24T12:16:29.621Z,10.25
2022-10-24T12:17:41.488Z,19.35
2022-10-24T12:18:50.701Z,15.82
2022-10-24T12:19:53.558Z,12.52
2022-10-24T12:20:58.347Z,14.90
2022-10-24T12:22:04.664Z,10.05
2022-10-24T12:23:07.427Z,15.90
2022-10-24T12:24:30.397Z,12.65
2022-10-24T12:25:37.287Z,8.93
2022-10-24T12:26:39.758Z,15.07
2022-10-24T12:27:42.653Z,13.30
2022-10-24T12:29:07.597Z,9.82
2022-10-24T12:30:10.212Z,10.70
2022-10-24T12:31:22.318Z,15.55
2022-10-24T12:32:55.446Z,10.60
2022-10-24T12:34:16.079Z,6.68
2022-10-24T12:35:31.580Z,9.40
2022-10-24T12:37:01.620Z,9.00
2022-10-24T12:38:15.709Z,8.70
2022-10-24T12:39:30.216Z,8.10
2022-10-24T12:40:54.435Z,13.73
2022-10-24T12:41:57.346Z,12.48
2022-10-24T12:42:59.749Z,9.10
2022-10-24T12:44:25.570Z,14.55
2022-10-24T12:45:32.728Z,11.80
2022-10-24T12:46:38.391Z,11.90
2022-10-24T12:47:41.839Z,14.25
2022-10-24T12:48:59.482Z,10.13
2022-10-24T12:50:23.569Z,11.90
2022-10-24T12:51:32.244Z,11.20
2022-10-24T12:52:37.484Z,10.98
2022-10-24T12:54:05.227Z,11.60
2022-10-24T12:55:28.879Z,12.20
2022-10-24T12:56:33.459Z,14.05
2022-10-24T12:57:38.161Z,9.70
2022-10-24T12:58:43.324Z,13.13
2022-10-24T12:59:51.605Z,10.52
2022-10-24T13:00:55.456Z,10.02
2022-10-24T13:02:32.801Z,9.90
2022-10-24T13:03:50.685Z,10.23
2022-10-24T13:05:16.992Z,12.00
2022-10-24T13:06:46.137Z,9.90
2022-10-24T13:08:10.073Z,15.65
2022-10-24T13:09:35.340Z,16.45
2022-10-24T13:10:46.171Z,11.55
2022-10-24T13:14:17.638Z,9.07
2022-10-24T13:15:25.669Z,29.60
2022-10-24T13:17:01.497Z,7.63
2022-10-24T13:18:21.155Z,19.77
2022-10-24T13:19:23.540Z,8.70
2022-10-24T13:20:40.997Z,14.80
2022-10-24T13:21:51.032Z,10.43
2022-10-24T13:23:06.181Z,9.75
2022-10-24T13:24:19.810Z,15.57
2022-10-24T13:25:34.397Z,7.82
2022-10-24T13:26:48.428Z,8.93
2022-10-24T13:28:19.803Z,8.50
2022-10-24T13:29:28.121Z,10.43
2022-10-24T13:30:30.739Z,14.63
2022-10-24T13:31:33.199Z,15.45
2022-10-24T13:32:36.080Z,8.82
2022-10-24T13:33:38.586Z,16.20
2022-10-24T13:34:50.306Z,10.85
2022-10-24T13:35:53.551Z,12.60
2022-10-24T13:37:06.443Z,15.80
2022-10-24T13:38:09.795Z,12.77
2022-10-24T13:39:18.444Z,10.18
2022-10-24T13:40:39.690Z,15.10
2022-10-24T13:41:44.765Z,13.30
2022-10-24T13:42:57.531Z,14.75
2022-10-24T13:44:11.594Z,14.32
2022-10-24T13:45:25.665Z,11.15
2022-10-24T13:46:53.281Z,10.77
2022-10-24T13:48:02.199Z,14.35
2022-10-24T13:49:05.292Z,11.85
2022-10-24T13:50:17.308Z,14.93
2022-10-24T13:51:35.025Z,9.05
2022-10-24T13:52:49.485Z,9.60
2022-10-24T13:53:59.944Z,12.02
2022-10-24T13:56:18.548Z,9.57
2022-10-24T13:57:36.359Z,10.77
2022-10-24T13:58:44.306Z,11.07
2022-10-24T13:59:54.813Z,11.82
2022-10-24T14:01:00.936Z,11.30
2022-10-24T14:02:14.017Z,8.07
2022-10-24T14:03:21.046Z,7.78
2022-10-24T14:04:25.252Z,9.55
2022-10-24T14:05:59.968Z,12.32
2022-10-24T14:07:05.109Z,13.63
2022-10-24T14:08:09.713Z,15.50
2022-10-24T14:09:12.647Z,11.70
2022-10-24T14:10:19.845Z,10.35
2022-10-24T14:11:26.927Z,9.85
2022-10-24T14:12:31.654Z,11.23
2022-10-24T14:13:36.913Z,10.15
2022-10-24T14:14:42.697Z,14.32
2022-10-24T14:15:50.640Z,13.63
2022-10-24T14:17:20.546Z,8.18
2022-10-24T14:18:25.752Z,13.15
2022-10-24T14:19:31.978Z,13.95
2022-10-24T14:20:37.480Z,14.07
2022-10-24T14:21:45.069Z,8.70
2022-10-24T14:22:48.084Z,9.88
2022-10-24T14:23:59.139Z,13.63
2022-10-24T14:26:07.381Z,11.27
2022-10-24T14:27:12.001Z,10.77
2022-10-24T14:28:16.991Z,13.32
2022-10-24T14:29:32.486Z,11.27
2022-10-24T14:30:35.348Z,10.07
2022-10-24T14:31:38.134Z,17.92
2022-10-24T14:32:40.701Z,12.05
2022-10-24T14:33:47.984Z,14.30
2022-10-24T14:34:50.884Z,12.60
2022-10-24T14:35:57.717Z,18.80
2022-10-24T14:37:09.246Z,17.35
2022-10-24T14:38:14.995Z,10.90
2022-10-24T14:39:24.081Z,12.65
2022-10-24T14:40:26.783Z,13.88
2022-10-24T14:41:35.625Z,17.38
2022-10-24T14:42:39.131Z,13.80
2022-10-24T14:43:42.820Z,11.32
2022-10-24T14:44:46.905Z,13.43
2022-10-24T14:46:13.650Z,11.50
2022-10-24T14:47:24.425Z,12.80
2022-10-24T14:48:29.841Z,14.10
2022-10-24T14:49:38.566Z,10.57
2022-10-24T14:50:43.662Z,10.98
2022-10-24T14:51:47.536Z,11.02
2022-10-24T14:52:50.267Z,11.63